Dry Creek, Kentucky
Current Conditions -  °F | °C
As of 12:15 AM on Tuesday 21 Oct 2014 (Local Time) from KPBX Reporting Station
Scattered Clouds Scattered Clouds  
Wind Chill: 53°   Ceiling: Unl
Heat Index: 53°   Visibility: 10mi
Dew Point: 48°   Wind: 5mph
Humidity: 81%   Direction: 220°SW
Pressure: 29.96"   Gusts: NA
Location:  37.351°N, 82.7744°W
Report Text: KPBX 210415Z AUTO 22004KT 10SM SCT100 12/09 A2996 RMK AO2 T01190087
Loading
Personal Weather Stations






























Interactive Weather Map
Tropical Storm Tracking
New forecast layout! Learn more

10-Day Weather Forecast

Advertisements
Track Severe Weather on mobile